Time;durP1;ratioP1;P1;durP2;ratioP2;P2;SDS_P1;SDS_P2;PMS_P1;PMS_P2;Temp;Humidity;BMP_temperature;BMP_pressure;BME280_temperature;BME280_humidity;BME280_pressure;Samples;Min_cycle;Max_cycle;Signal;HPM_P1;HPM_P2
2022/05/01 00:00:35;;;;;;;0.40;0.40;;;9.60;99.90;;;;;;5112546;28;20651;-85
2022/05/01 00:03:02;;;;;;;1.00;1.00;;;9.40;99.90;;;;;;5112493;28;21457;-86
2022/05/01 00:05:30;;;;;;;0.80;0.80;;;9.40;99.90;;;;;;5109480;28;20619;-86
2022/05/01 00:07:58;;;;;;;0.50;0.50;;;9.40;99.90;;;;;;5112085;28;20615;-85
2022/05/01 00:10:27;;;;;;;1.40;1.10;;;9.30;99.90;;;;;;5112360;28;20623;-85
2022/05/01 00:12:56;;;;;;;1.00;0.83;;;9.10;99.90;;;;;;5112412;28;20618;-85
2022/05/01 00:15:24;;;;;;;3.90;1.37;;;9.10;99.90;;;;;;5111650;28;20650;-85
2022/05/01 00:17:52;;;;;;;4.63;2.40;;;9.00;99.90;;;;;;5112362;28;20619;-85
2022/05/01 00:20:19;;;;;;;0.73;0.57;;;9.00;99.90;;;;;;5112139;28;20720;-86
2022/05/01 00:22:48;;;;;;;0.60;0.60;;;8.90;99.90;;;;;;5111899;28;20622;-84
2022/05/01 00:25:16;;;;;;;3.13;1.33;;;9.00;99.90;;;;;;5111875;28;20727;-87
2022/05/01 00:27:44;;;;;;;0.60;0.57;;;9.00;99.90;;;;;;5111780;28;21334;-85
2022/05/01 00:30:13;;;;;;;3.43;1.13;;;9.00;99.90;;;;;;5111710;28;20201;-86
2022/05/01 00:38:13;;;;;;;2.28;2.17;;;9.00;99.90;;;;;;5108744;28;20288;-84
2022/05/01 00:40:40;;;;;;;1.08;0.70;;;9.00;99.90;;;;;;5103641;28;20202;-85
2022/05/01 00:43:07;;;;;;;0.50;0.40;;;9.00;99.90;;;;;;5108076;28;20921;-86
2022/05/01 00:45:34;;;;;;;1.75;0.98;;;9.00;99.90;;;;;;5111508;28;20962;-87
2022/05/01 00:48:01;;;;;;;2.63;2.53;;;9.00;99.90;;;;;;5111204;28;20198;-85
2022/05/01 00:50:28;;;;;;;1.70;1.60;;;9.00;99.90;;;;;;5111515;28;21192;-85
2022/05/01 00:52:55;;;;;;;1.20;1.20;;;9.00;99.90;;;;;;5111373;28;20846;-84
2022/05/01 00:55:24;;;;;;;1.75;1.58;;;9.10;99.90;;;;;;5109308;28;20245;-86
2022/05/01 00:57:52;;;;;;;1.67;1.60;;;9.10;99.90;;;;;;5111237;28;20237;-87
2022/05/01 01:00:19;;;;;;;1.60;1.50;;;9.20;99.90;;;;;;5111430;28;20980;-84
2022/05/01 01:02:47;;;;;;;0.60;0.60;;;9.10;99.90;;;;;;5110930;28;20979;-85
2022/05/01 01:05:14;;;;;;;1.23;0.97;;;9.10;99.90;;;;;;5111004;28;20624;-86
2022/05/01 01:07:42;;;;;;;2.30;1.57;;;9.10;99.90;;;;;;5110846;28;20650;-87
2022/05/01 01:10:10;;;;;;;1.53;1.43;;;9.10;99.90;;;;;;5111429;28;20615;-84
2022/05/01 01:12:54;;;;;;;13.43;2.50;;;9.00;99.90;;;;;;5110560;28;20612;-85
2022/05/01 01:15:23;;;;;;;0.83;0.83;;;9.10;99.90;;;;;;5110608;28;20650;-86
2022/05/01 01:17:52;;;;;;;0.93;0.93;;;9.10;99.90;;;;;;5110962;28;20607;-85
2022/05/01 01:20:22;;;;;;;1.77;1.67;;;9.10;99.90;;;;;;5111028;28;20627;-85
2022/05/01 01:22:53;;;;;;;1.17;0.97;;;9.20;99.90;;;;;;5111040;28;20658;-85
2022/05/01 01:25:23;;;;;;;1.30;0.80;;;9.20;99.90;;;;;;5110427;28;20626;-86
2022/05/01 01:27:51;;;;;;;1.03;1.00;;;9.20;99.90;;;;;;5111571;28;20607;-85
2022/05/01 01:33:04;;;;;;;0.53;0.53;;;9.10;99.90;;;;;;5111403;28;20704;-86
2022/05/01 01:35:35;;;;;;;6.13;1.50;;;9.00;99.90;;;;;;5110006;28;20646;-84
2022/05/01 01:38:04;;;;;;;2.78;1.63;;;9.10;99.90;;;;;;5110904;28;21167;-84
2022/05/01 01:40:35;;;;;;;0.50;0.40;;;9.00;99.90;;;;;;5107157;28;20320;-85
2022/05/01 01:43:05;;;;;;;2.45;1.15;;;8.90;99.90;;;;;;5111088;28;20619;-85
2022/05/01 01:45:32;;;;;;;4.53;1.90;;;8.80;99.90;;;;;;5111199;28;20225;-85
2022/05/01 01:48:10;;;;;;;0.88;0.88;;;8.90;99.90;;;;;;5110222;28;20620;-85
2022/05/01 01:50:37;;;;;;;1.52;1.40;;;9.00;99.90;;;;;;5110439;28;20243;-85
2022/05/01 01:53:05;;;;;;;0.73;0.63;;;8.90;99.90;;;;;;5110218;28;20661;-85
2022/05/01 01:55:33;;;;;;;0.68;0.40;;;9.00;99.90;;;;;;5110106;28;20675;-86
2022/05/01 01:58:00;;;;;;;0.50;0.40;;;9.00;99.90;;;;;;5110244;28;20205;-85
2022/05/01 02:00:28;;;;;;;0.80;0.80;;;8.90;99.90;;;;;;5109837;28;20216;-85
2022/05/01 02:02:58;;;;;;;0.60;0.60;;;8.90;99.90;;;;;;5110483;28;20213;-85
2022/05/01 02:05:25;;;;;;;3.20;0.90;;;8.90;99.90;;;;;;5109298;28;21250;-85
2022/05/01 02:07:53;;;;;;;0.80;0.80;;;9.00;99.90;;;;;;5109680;28;20225;-84
2022/05/01 02:10:22;;;;;;;0.83;0.80;;;9.00;99.90;;;;;;5110113;28;20662;-85
2022/05/01 02:12:49;;;;;;;0.75;0.73;;;9.00;99.90;;;;;;5109209;28;20653;-85
2022/05/01 02:15:16;;;;;;;0.60;0.30;;;8.90;99.90;;;;;;5108547;28;20206;-85
2022/05/01 02:17:43;;;;;;;1.83;1.13;;;8.90;99.90;;;;;;5109850;28;20202;-85
2022/05/01 02:20:11;;;;;;;0.75;0.75;;;8.90;99.90;;;;;;5109841;28;20223;-86
2022/05/01 02:22:40;;;;;;;1.15;1.05;;;8.80;99.90;;;;;;5109580;28;20210;-84
2022/05/01 02:25:08;;;;;;;0.90;0.90;;;8.80;99.90;;;;;;5109765;28;20303;-86
2022/05/01 02:27:37;;;;;;;1.40;1.40;;;8.80;99.90;;;;;;5108943;28;20210;-84
2022/05/01 02:30:05;;;;;;;2.15;1.00;;;8.80;99.90;;;;;;5109638;28;20278;-85
2022/05/01 02:32:32;;;;;;;1.67;1.60;;;8.90;99.90;;;;;;5109365;28;20202;-86
2022/05/01 02:34:59;;;;;;;1.98;0.75;;;9.00;99.90;;;;;;5109566;28;20242;-86
2022/05/01 02:37:26;;;;;;;0.83;0.60;;;9.00;99.90;;;;;;5109043;28;20675;-85
2022/05/01 02:39:53;;;;;;;0.80;0.80;;;9.00;99.90;;;;;;5108239;28;21169;-87
2022/05/01 02:42:20;;;;;;;0.93;0.73;;;8.90;99.90;;;;;;5099092;28;20791;-86
2022/05/01 02:44:48;;;;;;;1.73;0.80;;;8.90;99.90;;;;;;5109069;28;21065;-85
2022/05/01 02:47:15;;;;;;;1.30;0.68;;;8.80;99.90;;;;;;5109300;28;20619;-86
2022/05/01 02:49:42;;;;;;;1.33;1.23;;;8.80;99.90;;;;;;5109689;28;20620;-85
2022/05/01 02:52:10;;;;;;;1.30;1.20;;;8.70;99.90;;;;;;5109131;28;20734;-85
2022/05/01 02:54:37;;;;;;;1.25;0.65;;;8.70;99.90;;;;;;5108505;28;20224;-86
2022/05/01 02:57:05;;;;;;;2.93;0.77;;;8.60;99.90;;;;;;5109013;28;20695;-86
2022/05/01 02:59:32;;;;;;;1.88;0.50;;;8.50;99.90;;;;;;5109220;28;20662;-85
2022/05/01 03:02:01;;;;;;;2.55;2.13;;;8.40;99.90;;;;;;5108974;28;20273;-85
2022/05/01 03:04:28;;;;;;;0.60;0.60;;;8.30;99.90;;;;;;5108887;28;20220;-85
2022/05/01 03:06:56;;;;;;;1.40;1.30;;;8.20;99.90;;;;;;5108451;28;20201;-84
2022/05/01 03:09:23;;;;;;;0.30;0.30;;;8.10;99.90;;;;;;5108498;28;20214;-85
2022/05/01 03:11:50;;;;;;;1.70;1.60;;;8.10;99.90;;;;;;5108774;28;20203;-85
2022/05/01 03:14:17;;;;;;;1.85;1.73;;;8.20;99.90;;;;;;5108507;28;20711;-85
2022/05/01 03:16:44;;;;;;;0.88;0.40;;;8.20;99.90;;;;;;5108452;28;20202;-85
2022/05/01 03:22:13;;;;;;;1.60;0.80;;;8.30;99.90;;;;;;5108233;28;20209;-85
2022/05/01 03:24:41;;;;;;;0.38;0.25;;;8.30;99.90;;;;;;5108355;28;20190;-85
2022/05/01 03:27:08;;;;;;;0.40;0.35;;;8.40;99.90;;;;;;5107468;28;20609;-85
2022/05/01 03:29:36;;;;;;;1.98;0.90;;;8.50;99.90;;;;;;5108441;28;20289;-85
2022/05/01 03:32:07;;;;;;;0.88;0.45;;;8.50;99.90;;;;;;5108615;28;20222;-85
2022/05/01 03:34:37;;;;;;;0.82;0.77;;;8.40;99.90;;;;;;5109205;28;20190;-86
2022/05/01 03:37:06;;;;;;;0.40;0.20;;;8.40;99.90;;;;;;5108793;28;20209;-85
2022/05/01 03:39:34;;;;;;;0.30;0.20;;;8.40;99.90;;;;;;5108755;28;20205;-85
2022/05/01 03:42:01;;;;;;;0.30;0.20;;;8.50;99.90;;;;;;5093923;28;20198;-84
2022/05/01 03:44:28;;;;;;;1.15;0.55;;;8.50;99.90;;;;;;5108840;28;20208;-85
2022/05/01 03:46:55;;;;;;;1.10;0.93;;;8.50;99.90;;;;;;5107842;28;20815;-85
2022/05/01 03:49:22;;;;;;;0.75;0.73;;;8.50;99.90;;;;;;5109061;28;20617;-85
2022/05/01 03:51:50;;;;;;;0.60;0.30;;;8.50;99.90;;;;;;5108537;28;20229;-86
2022/05/01 03:54:17;;;;;;;0.30;0.25;;;8.50;99.90;;;;;;5108267;28;20225;-84
2022/05/01 03:56:44;;;;;;;0.30;0.10;;;8.50;99.90;;;;;;5107606;28;20274;-86
2022/05/01 03:59:11;;;;;;;0.60;0.57;;;8.60;99.90;;;;;;5108206;28;20209;-84
2022/05/01 04:01:42;;;;;;;0.30;0.20;;;8.60;99.90;;;;;;5108321;28;20206;-85
2022/05/01 04:04:09;;;;;;;0.85;0.60;;;8.50;99.90;;;;;;5108696;28;20289;-85
2022/05/01 04:06:36;;;;;;;1.02;0.95;;;8.60;99.90;;;;;;5102145;28;20198;-84
2022/05/01 04:09:05;;;;;;;0.60;0.57;;;8.70;99.90;;;;;;5108938;28;20298;-85
2022/05/01 04:11:32;;;;;;;1.02;0.75;;;8.70;99.90;;;;;;5108526;28;20312;-86
2022/05/01 04:14:01;;;;;;;6.53;1.00;;;8.60;99.90;;;;;;5108197;28;20284;-86
2022/05/01 04:16:28;;;;;;;0.50;0.30;;;8.60;99.90;;;;;;5108042;28;20859;-85
2022/05/01 04:18:55;;;;;;;0.77;0.77;;;8.50;99.90;;;;;;5108646;28;20282;-85
2022/05/01 04:21:23;;;;;;;0.55;0.55;;;8.50;99.90;;;;;;5108677;28;20220;-84
2022/05/01 04:23:50;;;;;;;1.50;0.70;;;8.40;99.90;;;;;;5108347;28;20573;-86
2022/05/01 04:26:19;;;;;;;1.40;1.30;;;8.40;99.90;;;;;;5107801;28;20202;-85
2022/05/01 04:31:27;;;;;;;0.40;0.30;;;8.30;99.90;;;;;;5108035;28;20206;-87
2022/05/01 04:33:54;;;;;;;0.73;0.73;;;8.30;99.90;;;;;;5109090;28;20243;-84
2022/05/01 04:39:12;;;;;;;0.75;0.55;;;8.30;99.90;;;;;;5109737;28;20302;-85
2022/05/01 04:41:41;;;;;;;2.88;2.70;;;8.40;99.90;;;;;;5105077;28;20198;-85
2022/05/01 04:44:07;;;;;;;1.08;1.08;;;8.40;99.90;;;;;;5111739;28;20222;-85
2022/05/01 04:46:34;;;;;;;4.63;1.02;;;8.40;99.90;;;;;;5111470;28;20194;-85
2022/05/01 04:49:01;;;;;;;1.10;1.08;;;8.50;99.90;;;;;;5111751;28;20935;-85
2022/05/01 04:51:28;;;;;;;0.40;0.40;;;8.60;99.90;;;;;;5111669;28;20683;-85
2022/05/01 04:53:55;;;;;;;2.15;1.75;;;8.60;99.90;;;;;;5111527;28;20201;-85
2022/05/01 04:59:08;;;;;;;0.68;0.68;;;8.60;99.90;;;;;;5111271;28;20198;-86
2022/05/01 05:01:35;;;;;;;0.43;0.43;;;8.60;99.90;;;;;;5111394;28;20216;-85
2022/05/01 05:04:03;;;;;;;0.98;0.52;;;8.70;99.90;;;;;;5110729;28;20198;-86
2022/05/01 05:06:30;;;;;;;2.72;1.50;;;8.70;99.90;;;;;;5108987;27;20680;-86
2022/05/01 05:11:46;;;;;;;0.30;0.20;;;8.80;99.90;;;;;;5105087;28;21136;-85
2022/05/01 05:14:14;;;;;;;0.65;0.65;;;8.80;99.90;;;;;;5111106;28;20252;-85
2022/05/01 05:16:41;;;;;;;1.95;1.55;;;8.60;99.90;;;;;;5110978;28;20630;-85
2022/05/01 05:19:08;;;;;;;6.32;1.30;;;8.70;99.90;;;;;;5111089;28;20208;-85
2022/05/01 05:21:35;;;;;;;0.97;0.90;;;8.70;99.90;;;;;;5111060;28;20579;-85
2022/05/01 05:24:02;;;;;;;0.63;0.63;;;8.70;99.90;;;;;;5111253;28;20619;-85
2022/05/01 05:26:29;;;;;;;2.05;1.95;;;8.70;99.90;;;;;;5110991;28;20622;-85
2022/05/01 05:28:56;;;;;;;0.55;0.55;;;8.60;99.90;;;;;;5110570;28;20230;-86
2022/05/01 05:31:24;;;;;;;2.73;2.53;;;8.80;99.90;;;;;;5111033;28;20250;-84
2022/05/01 05:33:51;;;;;;;0.87;0.87;;;8.80;99.90;;;;;;5110419;28;20711;-87
2022/05/01 05:36:18;;;;;;;1.83;1.73;;;8.80;99.90;;;;;;5110230;28;20770;-85
2022/05/01 05:38:45;;;;;;;2.60;1.63;;;8.80;99.90;;;;;;5110815;28;20655;-85
2022/05/01 05:41:11;;;;;;;1.00;0.90;;;8.60;99.90;;;;;;5110681;28;20623;-85
2022/05/01 05:43:39;;;;;;;1.80;1.47;;;8.70;99.90;;;;;;5109758;28;20685;-85
2022/05/01 05:46:06;;;;;;;0.73;0.70;;;8.80;99.90;;;;;;5110865;28;20660;-85
2022/05/01 05:48:37;;;;;;;1.23;1.23;;;8.80;99.90;;;;;;5109202;28;21259;-84
2022/05/01 05:51:04;;;;;;;1.33;1.23;;;8.80;99.90;;;;;;5110570;28;20624;-86
2022/05/01 05:53:33;;;;;;;0.40;0.40;;;8.90;99.90;;;;;;5110033;28;21054;-84
2022/05/01 05:56:00;;;;;;;0.67;0.67;;;8.80;99.90;;;;;;5110000;28;20631;-85
2022/05/01 05:58:27;;;;;;;0.50;0.50;;;8.80;99.90;;;;;;5109981;28;20668;-85
2022/05/01 06:00:54;;;;;;;2.25;2.05;;;8.90;99.90;;;;;;5110338;28;21109;-85
2022/05/01 06:03:21;;;;;;;0.30;0.23;;;9.00;99.90;;;;;;5110298;28;20202;-85
2022/05/01 06:05:49;;;;;;;0.40;0.33;;;9.10;99.90;;;;;;5109986;28;20623;-85
2022/05/01 06:08:16;;;;;;;1.60;1.33;;;9.00;99.90;;;;;;5110311;28;20680;-85
2022/05/01 06:10:43;;;;;;;1.40;1.30;;;9.10;99.90;;;;;;5109401;28;20218;-85
2022/05/01 06:13:10;;;;;;;1.33;0.85;;;9.10;99.90;;;;;;5109991;28;20206;-84
2022/05/01 06:15:38;;;;;;;0.90;0.90;;;9.10;99.90;;;;;;5109740;28;20309;-84
2022/05/01 06:18:05;;;;;;;0.70;0.67;;;9.20;99.90;;;;;;5109746;28;20993;-84
2022/05/01 06:20:32;;;;;;;1.30;1.23;;;9.20;99.90;;;;;;5110050;28;20611;-85
2022/05/01 06:23:00;;;;;;;0.93;0.93;;;9.30;99.90;;;;;;5109643;28;20627;-84
2022/05/01 06:25:27;;;;;;;1.95;0.85;;;9.30;99.90;;;;;;5110047;28;20646;-85
2022/05/01 06:27:54;;;;;;;1.23;1.20;;;9.30;99.90;;;;;;5109857;28;20202;-84
2022/05/01 06:30:21;;;;;;;0.40;0.40;;;9.30;99.90;;;;;;5109715;28;20623;-86
2022/05/01 06:32:49;;;;;;;0.93;0.93;;;9.40;99.90;;;;;;5109768;28;20665;-85
2022/05/01 06:35:17;;;;;;;3.90;2.17;;;9.30;99.90;;;;;;5109691;28;20722;-85
2022/05/01 06:37:45;;;;;;;2.73;0.97;;;9.30;99.90;;;;;;5109400;28;20672;-85
2022/05/01 06:40:13;;;;;;;1.67;1.57;;;9.20;99.90;;;;;;5109108;28;20623;-85
2022/05/01 06:42:40;;;;;;;2.70;1.00;;;9.10;99.90;;;;;;5109716;28;20651;-85
2022/05/01 06:45:08;;;;;;;0.90;0.77;;;9.00;99.90;;;;;;5109780;28;20658;-84
2022/05/01 06:47:35;;;;;;;1.02;0.95;;;9.00;99.90;;;;;;5108863;28;20634;-86
2022/05/01 06:50:02;;;;;;;1.77;1.67;;;9.10;99.90;;;;;;5109895;28;20262;-85
2022/05/01 06:52:29;;;;;;;2.20;2.00;;;9.20;99.90;;;;;;5108734;28;20623;-85
2022/05/01 06:54:56;;;;;;;0.97;0.97;;;9.30;99.90;;;;;;5109384;28;20659;-86
2022/05/01 06:57:25;;;;;;;1.17;1.07;;;9.30;99.90;;;;;;5109061;28;20736;-85
2022/05/01 06:59:52;;;;;;;1.40;0.87;;;9.30;99.90;;;;;;5109551;28;20624;-85
2022/05/01 07:02:19;;;;;;;1.13;1.03;;;9.40;99.90;;;;;;5099475;28;21269;-85
2022/05/01 07:04:47;;;;;;;1.77;1.67;;;9.40;99.90;;;;;;5100488;28;20626;-85
2022/05/01 07:07:14;;;;;;;2.97;2.77;;;9.30;99.90;;;;;;5107779;28;20624;-84
2022/05/01 07:09:41;;;;;;;1.17;1.10;;;9.30;99.90;;;;;;5101055;28;21072;-85
2022/05/01 07:12:10;;;;;;;2.17;2.07;;;9.30;99.90;;;;;;5101519;28;20624;-85
2022/05/01 07:14:39;;;;;;;2.60;2.33;;;9.50;99.90;;;;;;5108686;28;20635;-86
2022/05/01 07:17:06;;;;;;;2.43;1.70;;;9.40;99.90;;;;;;5107875;28;20644;-84
2022/05/01 07:19:33;;;;;;;4.20;3.30;;;9.50;99.90;;;;;;5107764;28;20623;-85
2022/05/01 07:21:59;;;;;;;1.03;0.50;;;9.50;99.90;;;;;;5108717;28;20726;-84
2022/05/01 07:24:26;;;;;;;0.50;0.50;;;9.50;99.90;;;;;;5109806;28;20623;-86
2022/05/01 07:26:53;;;;;;;4.30;3.13;;;9.50;99.90;;;;;;5107025;28;20676;-86
2022/05/01 07:29:20;;;;;;;10.77;1.90;;;9.60;99.90;;;;;;5107316;28;21165;-86
2022/05/01 07:31:49;;;;;;;2.33;1.70;;;9.80;99.90;;;;;;5106544;28;20634;-85
2022/05/01 07:34:15;;;;;;;2.50;2.30;;;9.90;99.90;;;;;;5108025;28;20718;-85
2022/05/01 07:36:43;;;;;;;0.53;0.40;;;10.00;99.90;;;;;;5106926;28;20676;-85
2022/05/01 07:39:12;;;;;;;1.07;0.97;;;9.80;99.90;;;;;;5107439;28;20612;-85
2022/05/01 07:41:39;;;;;;;2.60;2.40;;;9.70;99.90;;;;;;5107280;28;21165;-84
2022/05/01 07:44:08;;;;;;;0.87;0.83;;;9.70;99.90;;;;;;5108911;28;20628;-85
2022/05/01 07:46:35;;;;;;;1.03;1.03;;;9.80;99.90;;;;;;5108237;28;20650;-85
2022/05/01 07:49:03;;;;;;;1.60;1.50;;;9.90;99.90;;;;;;5107290;28;20728;-85
2022/05/01 07:51:30;;;;;;;0.50;0.50;;;10.10;99.90;;;;;;5108331;28;20623;-85
2022/05/01 07:53:58;;;;;;;2.43;2.00;;;10.20;99.90;;;;;;5108451;28;20620;-86
2022/05/01 07:56:25;;;;;;;1.40;1.30;;;10.30;99.90;;;;;;5107526;28;20633;-85
2022/05/01 07:58:52;;;;;;;1.45;1.13;;;10.40;99.90;;;;;;5107739;28;20738;-85
2022/05/01 08:01:20;;;;;;;2.67;1.50;;;10.40;99.90;;;;;;5108410;28;20221;-86
2022/05/01 08:06:48;;;;;;;3.15;2.45;;;10.30;99.90;;;;;;5084724;28;20793;-86
2022/05/01 08:09:15;;;;;;;1.90;1.80;;;10.20;99.90;;;;;;5085122;28;20208;-85
2022/05/01 08:11:44;;;;;;;0.60;0.50;;;10.40;99.90;;;;;;5096351;28;21495;-86
2022/05/01 08:14:12;;;;;;;1.03;1.00;;;10.70;99.90;;;;;;5112377;28;20621;-85
2022/05/01 08:16:40;;;;;;;2.07;1.87;;;10.80;99.90;;;;;;5112194;28;20657;-85
2022/05/01 08:21:53;;;;;;;1.57;1.47;;;11.00;99.90;;;;;;5112157;28;20625;-85
2022/05/01 08:24:20;;;;;;;1.07;0.80;;;11.10;99.60;;;;;;5112736;28;20617;-86
2022/05/01 08:26:48;;;;;;;0.53;0.53;;;10.90;99.30;;;;;;5111975;28;20758;-85
2022/05/01 08:29:15;;;;;;;2.73;1.13;;;11.10;99.40;;;;;;5112183;28;20667;-86
2022/05/01 08:31:42;;;;;;;4.00;1.63;;;11.10;99.50;;;;;;5112131;28;20646;-85
2022/05/01 08:34:10;;;;;;;1.23;0.93;;;11.30;99.40;;;;;;5112263;28;20619;-84
2022/05/01 08:36:37;;;;;;;2.03;1.00;;;11.50;98.60;;;;;;5112066;28;20690;-85
2022/05/01 08:39:09;;;;;;;1.97;1.20;;;11.50;98.40;;;;;;5112189;28;20622;-85
2022/05/01 08:41:36;;;;;;;0.40;0.33;;;11.60;98.60;;;;;;5101800;28;20637;-85
2022/05/01 08:44:05;;;;;;;0.73;0.73;;;11.50;97.60;;;;;;5112197;28;20614;-85
2022/05/01 08:46:56;;;;;;;0.93;0.93;;;11.30;97.40;;;;;;5111706;28;20711;-85
2022/05/01 08:49:24;;;;;;;1.43;0.70;;;11.20;96.90;;;;;;5112390;28;21157;-85
2022/05/01 08:51:53;;;;;;;2.70;1.87;;;11.20;97.80;;;;;;5111036;28;20724;-84
2022/05/01 08:54:24;;;;;;;0.73;0.70;;;11.40;97.50;;;;;;5110527;28;21161;-86
2022/05/01 08:56:51;;;;;;;1.23;1.13;;;11.50;97.30;;;;;;5110700;28;20659;-86
2022/05/01 08:59:19;;;;;;;0.43;0.40;;;11.50;97.10;;;;;;5110870;28;21304;-84
2022/05/01 09:01:46;;;;;;;1.67;1.57;;;11.70;96.80;;;;;;5110484;28;20684;-84
2022/05/01 09:04:14;;;;;;;1.43;1.10;;;11.70;96.40;;;;;;5111777;28;20682;-85
2022/05/01 09:06:43;;;;;;;1.20;0.77;;;11.80;96.60;;;;;;5110899;28;21202;-86
2022/05/01 09:09:11;;;;;;;0.70;0.40;;;11.80;96.40;;;;;;5111485;28;20642;-85
2022/05/01 09:14:25;;;;;;;3.60;0.80;;;11.80;96.30;;;;;;5111796;28;20623;-84
2022/05/01 09:17:15;;;;;;;1.37;1.27;;;12.00;95.60;;;;;;5110962;28;20738;-85
2022/05/01 09:19:43;;;;;;;1.03;0.93;;;12.00;95.70;;;;;;5111393;28;20962;-84
2022/05/01 09:22:11;;;;;;;1.83;1.60;;;12.00;96.00;;;;;;5110669;28;20688;-84
2022/05/01 09:24:38;;;;;;;0.67;0.50;;;11.90;95.20;;;;;;5110710;28;20641;-85
2022/05/01 09:27:07;;;;;;;1.23;0.50;;;11.80;95.60;;;;;;5110828;28;20712;-86
2022/05/01 09:29:34;;;;;;;1.07;0.93;;;11.80;95.70;;;;;;5089633;28;20663;-84
2022/05/01 09:32:03;;;;;;;0.80;0.70;;;11.90;95.60;;;;;;5107427;28;20632;-85
2022/05/01 09:34:32;;;;;;;1.83;1.03;;;12.10;94.80;;;;;;5110713;28;20957;-85
2022/05/01 09:37:01;;;;;;;0.30;0.20;;;12.10;94.00;;;;;;5110973;28;20659;-86
2022/05/01 09:39:29;;;;;;;1.93;1.57;;;12.10;94.00;;;;;;5111016;28;20616;-85
2022/05/01 09:42:16;;;;;;;1.23;1.23;;;12.00;94.10;;;;;;5105177;28;20620;-85
2022/05/01 09:44:43;;;;;;;2.17;2.07;;;12.10;95.00;;;;;;5110547;28;21192;-85
2022/05/01 09:47:11;;;;;;;3.90;1.90;;;12.30;95.20;;;;;;5110343;28;20726;-84
2022/05/01 09:49:49;;;;;;;1.13;1.10;;;12.40;94.70;;;;;;5110499;28;20689;-85
2022/05/01 09:52:16;;;;;;;0.60;0.60;;;12.40;94.80;;;;;;5110583;28;20638;-86
2022/05/01 09:55:02;;;;;;;2.27;1.40;;;12.60;94.60;;;;;;5111088;28;21251;-85
2022/05/01 09:57:31;;;;;;;1.33;0.87;;;12.60;94.30;;;;;;5110552;28;21289;-84
2022/05/01 09:59:58;;;;;;;0.83;0.83;;;12.80;94.50;;;;;;5111118;28;20618;-86
2022/05/01 10:02:29;;;;;;;1.07;0.87;;;13.00;94.10;;;;;;5110950;28;20660;-85
2022/05/01 10:05:02;;;;;;;2.50;1.50;;;13.20;94.50;;;;;;5106321;28;20620;-84
2022/05/01 10:07:34;;;;;;;0.50;0.40;;;13.50;93.50;;;;;;5105540;28;20631;-85
2022/05/01 10:10:03;;;;;;;0.57;0.40;;;14.00;92.90;;;;;;5110596;28;21211;-86
2022/05/01 10:12:33;;;;;;;2.33;0.80;;;14.20;91.70;;;;;;5112138;28;21240;-86
2022/05/01 10:15:00;;;;;;;0.70;0.47;;;14.30;90.20;;;;;;5113322;28;20627;-85
2022/05/01 10:17:27;;;;;;;2.80;2.33;;;14.10;88.20;;;;;;5127730;27;20692;-84
2022/05/01 10:19:55;;;;;;;1.57;1.40;;;14.20;90.00;;;;;;5109661;28;21252;-84
2022/05/01 10:22:24;;;;;;;0.73;0.67;;;14.40;90.80;;;;;;5111207;28;20627;-84
2022/05/01 10:24:51;;;;;;;0.87;0.50;;;14.90;91.00;;;;;;5110708;28;20623;-84
2022/05/01 10:27:41;;;;;;;0.80;0.80;;;15.20;89.10;;;;;;5110819;28;20651;-85
2022/05/01 10:33:37;;;;;;;0.60;0.60;;;15.50;86.70;;;;;;5110092;28;21470;-84
2022/05/01 10:36:32;;;;;;;2.30;1.23;;;15.30;85.10;;;;;;5066911;28;20653;-85
2022/05/01 10:39:09;;;;;;;1.20;0.90;;;15.20;83.90;;;;;;5105719;28;20953;-85
2022/05/01 10:41:41;;;;;;;2.03;1.03;;;15.00;84.50;;;;;;5109490;28;21243;-85
2022/05/01 10:44:26;;;;;;;1.03;0.80;;;15.00;82.10;;;;;;5109801;28;20647;-84
2022/05/01 10:46:54;;;;;;;2.87;2.00;;;14.90;82.00;;;;;;5109358;28;20638;-85
2022/05/01 10:49:37;;;;;;;1.77;1.40;;;14.80;82.50;;;;;;5109270;28;20631;-84
2022/05/01 10:52:19;;;;;;;0.63;0.43;;;14.90;83.40;;;;;;5108375;28;20628;-85
2022/05/01 10:54:54;;;;;;;0.60;0.53;;;14.80;84.10;;;;;;5101412;28;20718;-85
2022/05/01 10:57:23;;;;;;;0.70;0.70;;;14.80;84.10;;;;;;5098789;28;20701;-85
2022/05/01 11:00:06;;;;;;;2.57;1.27;;;14.80;84.00;;;;;;5089361;28;20685;-84
2022/05/01 11:02:38;;;;;;;1.00;0.90;;;14.70;83.50;;;;;;5103055;28;20631;-85
2022/05/01 11:05:08;;;;;;;2.83;0.70;;;14.60;82.50;;;;;;5101155;28;20735;-84
2022/05/01 11:07:40;;;;;;;1.90;1.10;;;14.70;81.40;;;;;;5102063;28;20630;-84
2022/05/01 11:10:10;;;;;;;2.60;1.03;;;14.80;81.70;;;;;;5115854;27;20627;-85
2022/05/01 11:12:38;;;;;;;0.70;0.47;;;14.80;81.60;;;;;;5108552;28;20634;-85
2022/05/01 11:15:10;;;;;;;0.63;0.63;;;14.80;80.90;;;;;;5109140;28;20663;-85
2022/05/01 11:17:56;;;;;;;2.03;1.00;;;14.80;81.30;;;;;;5124588;27;20679;-85
2022/05/01 11:20:41;;;;;;;1.43;0.63;;;14.90;80.10;;;;;;5089163;28;20612;-85
2022/05/01 11:23:28;;;;;;;0.63;0.63;;;15.00;78.40;;;;;;5106847;28;20981;-86
2022/05/01 11:26:07;;;;;;;0.60;0.60;;;14.80;79.60;;;;;;5108946;28;21184;-85
2022/05/01 11:28:48;;;;;;;0.73;0.60;;;14.80;78.80;;;;;;5107434;28;21002;-85
2022/05/01 11:31:46;;;;;;;0.80;0.80;;;14.90;79.60;;;;;;5108351;28;20679;-85
2022/05/01 11:34:50;;;;;;;0.40;0.33;;;14.90;78.30;;;;;;5109245;28;20670;-84
2022/05/01 11:37:18;;;;;;;1.07;0.97;;;15.10;79.20;;;;;;5098776;28;21481;-86
2022/05/01 11:40:18;;;;;;;2.77;0.77;;;15.00;80.00;;;;;;5108756;28;20726;-85
2022/05/01 11:42:45;;;;;;;0.53;0.43;;;14.90;79.30;;;;;;5100164;28;20644;-86
2022/05/01 11:45:12;;;;;;;0.73;0.57;;;15.10;80.50;;;;;;5108724;28;20633;-85
2022/05/01 11:47:43;;;;;;;0.93;0.50;;;15.20;80.30;;;;;;5108098;28;20630;-86
2022/05/01 11:50:21;;;;;;;1.40;1.33;;;15.50;75.70;;;;;;5091267;28;20694;-85
2022/05/01 11:52:53;;;;;;;1.00;0.90;;;15.70;76.00;;;;;;5088553;28;20693;-85
2022/05/01 12:02:24;;;;;;;1.10;0.60;;;15.50;75.70;;;;;;5102263;28;20700;-85
2022/05/01 12:03:38;;;;;;;3.40;1.20;;;15.70;75.50;;;;;;5106800;28;20652;-85
2022/05/01 12:06:05;;;;;;;2.00;1.13;;;15.70;74.00;;;;;;5107955;28;20644;-86
2022/05/01 12:08:32;;;;;;;0.63;0.63;;;15.70;74.10;;;;;;5107880;28;20978;-85
2022/05/01 12:10:59;;;;;;;0.80;0.77;;;15.80;74.00;;;;;;5107750;28;20748;-86
2022/05/01 12:13:28;;;;;;;1.47;1.37;;;15.90;74.50;;;;;;5108584;28;21212;-85
2022/05/01 12:15:56;;;;;;;0.93;0.90;;;16.00;73.80;;;;;;5107774;28;20620;-85
2022/05/01 12:18:24;;;;;;;1.03;0.97;;;16.00;71.40;;;;;;5108217;28;21257;-85
2022/05/01 12:20:53;;;;;;;5.13;1.67;;;15.30;72.00;;;;;;5108229;28;20631;-85
2022/05/01 12:23:21;;;;;;;0.57;0.57;;;15.00;69.60;;;;;;5108139;28;20637;-85
2022/05/01 12:25:50;;;;;;;1.30;0.70;;;15.00;73.60;;;;;;5108465;28;20635;-85
2022/05/01 12:28:18;;;;;;;0.57;0.30;;;15.20;74.20;;;;;;5098969;28;20743;-85
2022/05/01 12:30:49;;;;;;;2.43;1.07;;;15.40;74.80;;;;;;5108419;28;20631;-85
2022/05/01 12:33:21;;;;;;;0.60;0.60;;;15.40;74.90;;;;;;5108440;28;21182;-85
2022/05/01 12:35:57;;;;;;;1.13;0.60;;;15.50;75.70;;;;;;5107743;28;20734;-85
2022/05/01 12:38:28;;;;;;;2.60;2.03;;;15.70;75.80;;;;;;5089177;28;21239;-85
2022/05/01 12:43:52;;;;;;;1.33;1.10;;;15.60;77.10;;;;;;5099017;28;20616;-86
2022/05/01 12:46:27;;;;;;;2.40;1.70;;;15.80;77.20;;;;;;5107543;28;20630;-85
2022/05/01 12:48:54;;;;;;;3.03;2.00;;;15.90;77.50;;;;;;5106254;28;20623;-85
2022/05/01 12:51:24;;;;;;;1.00;0.90;;;16.00;76.50;;;;;;5108602;28;20670;-85
2022/05/01 12:54:06;;;;;;;1.80;1.70;;;16.20;76.30;;;;;;5109128;28;20790;-85
2022/05/01 12:56:35;;;;;;;2.03;1.40;;;16.60;72.20;;;;;;5108696;28;20678;-86
2022/05/01 12:59:27;;;;;;;0.90;0.70;;;16.90;73.60;;;;;;5110565;28;20666;-86
2022/05/01 13:01:55;;;;;;;1.37;0.80;;;17.00;74.20;;;;;;5111121;28;20623;-86
2022/05/01 13:04:24;;;;;;;2.80;1.23;;;17.00;72.70;;;;;;5111627;28;20624;-86
2022/05/01 13:06:53;;;;;;;1.23;0.90;;;17.30;71.60;;;;;;5101657;28;21220;-85
2022/05/01 13:09:19;;;;;;;1.50;1.23;;;17.60;69.50;;;;;;5110554;28;20635;-86
2022/05/01 13:12:00;;;;;;;1.00;1.00;;;17.50;69.90;;;;;;5110980;28;21349;-85
2022/05/01 13:14:32;;;;;;;6.70;2.70;;;18.40;70.80;;;;;;5109453;28;20721;-87
2022/05/01 13:17:09;;;;;;;1.70;1.57;;;19.30;69.60;;;;;;5111027;28;20628;-85
2022/05/01 13:19:38;;;;;;;1.60;1.13;;;19.60;64.70;;;;;;5110858;28;20686;-86
2022/05/01 13:22:08;;;;;;;2.10;1.77;;;20.60;66.00;;;;;;5111241;28;20649;-86
2022/05/01 13:24:37;;;;;;;1.20;1.10;;;21.40;64.60;;;;;;5111348;28;20696;-84
2022/05/01 13:27:08;;;;;;;2.03;1.90;;;22.10;59.70;;;;;;5110782;28;20669;-84
2022/05/01 13:29:36;;;;;;;1.73;1.63;;;22.90;58.50;;;;;;5110968;28;20654;-83
2022/05/01 13:32:06;;;;;;;2.80;1.97;;;23.70;57.80;;;;;;5110767;28;20623;-83
2022/05/01 13:34:34;;;;;;;2.27;1.77;;;24.10;54.80;;;;;;5110674;28;20759;-84
2022/05/01 13:37:02;;;;;;;1.27;1.17;;;23.50;52.30;;;;;;5110987;28;20703;-83
2022/05/01 13:44:56;;;;;;;1.20;1.20;;;24.10;53.60;;;;;;5110332;28;20664;-84
2022/05/01 13:47:23;;;;;;;2.30;1.23;;;25.10;52.30;;;;;;5110234;28;20680;-84
2022/05/01 13:49:50;;;;;;;0.90;0.90;;;25.80;50.30;;;;;;5110104;28;20618;-83
2022/05/01 13:52:18;;;;;;;1.53;1.43;;;25.50;50.20;;;;;;5110242;28;20638;-83